Time;durP1;ratioP1;P1;durP2;ratioP2;P2;SDS_P1;SDS_P2;PMS_P1;PMS_P2;Temp;Humidity;BMP_temperature;BMP_pressure;BME280_temperature;BME280_humidity;BME280_pressure;Samples;Min_cycle;Max_cycle;Signal;HPM_P1;HPM_P2
2022/06/04 00:00:32;;;;;;;55.55;12.30;;;18.10;99.90;;;;;;5055927;28;20211;-51
2022/06/04 00:02:58;;;;;;;34.63;7.68;;;18.60;1.00;;;;;;5073842;28;20207;-52
2022/06/04 00:05:27;;;;;;;41.20;9.30;;;18.30;99.90;;;;;;5074360;28;20212;-51
2022/06/04 00:07:53;;;;;;;46.42;10.60;;;18.50;1.00;;;;;;5073290;28;20218;-51
2022/06/04 00:15:53;;;;;;;30.90;7.20;;;18.30;99.90;;;;;;5073943;28;20226;-52
2022/06/04 00:18:20;;;;;;;39.78;8.93;;;18.10;1.00;;;;;;5073063;28;20222;-52
2022/06/04 00:20:47;;;;;;;39.67;9.48;;;18.40;42.50;;;;;;5073323;28;20727;-52
2022/06/04 00:23:13;;;;;;;46.65;11.02;;;18.00;1.00;;;;;;5073401;28;20174;-52
2022/06/04 00:25:41;;;;;;;22.23;5.63;;;17.70;99.90;;;;;;5073121;28;20636;-52
2022/06/04 00:28:09;;;;;;;42.05;9.55;;;17.70;1.00;;;;;;5072876;28;20590;-52
2022/06/04 00:30:35;;;;;;;39.33;8.63;;;17.50;1.00;;;;;;5073194;28;20210;-52
2022/06/04 00:33:01;;;;;;;26.48;6.43;;;;;;;;;;5072921;28;20672;-52
2022/06/04 00:35:27;;;;;;;45.58;9.93;;;;;;;;;;5073612;28;20167;-52
2022/06/04 00:37:53;;;;;;;36.90;8.13;;;17.70;99.90;;;;;;5072517;28;20268;-51
2022/06/04 00:40:43;;;;;;;39.38;8.73;;;17.40;1.00;;;;;;5073121;28;20210;-52
2022/06/04 00:43:10;;;;;;;51.10;11.20;;;18.40;1.00;;;;;;5072562;28;20285;-52
2022/06/04 00:45:35;;;;;;;36.92;8.02;;;17.60;26.20;;;;;;5073028;28;20210;-51
2022/06/04 00:48:04;;;;;;;37.88;8.35;;;17.60;99.90;;;;;;5071538;28;20559;-52
2022/06/04 00:50:32;;;;;;;40.10;8.75;;;17.50;99.90;;;;;;5073023;28;20167;-52
2022/06/04 00:53:00;;;;;;;32.17;7.13;;;17.60;1.00;;;;;;5072681;28;20199;-51
2022/06/04 00:55:32;;;;;;;49.33;10.77;;;17.30;67.80;;;;;;5072813;28;20215;-51
2022/06/04 00:57:58;;;;;;;37.97;8.77;;;;;;;;;;5072328;28;20590;-52
2022/06/04 01:00:24;;;;;;;37.17;8.50;;;;;;;;;;5072667;28;20219;-51
2022/06/04 01:03:04;;;;;;;44.55;10.25;;;17.60;1.00;;;;;;5072288;28;23186;-52
2022/06/04 01:05:55;;;;;;;33.58;7.63;;;17.50;42.70;;;;;;5072452;28;20167;-52
2022/06/04 01:08:45;;;;;;;41.67;9.10;;;17.60;1.00;;;;;;5072415;28;20285;-52
2022/06/04 01:11:27;;;;;;;42.22;9.20;;;17.70;1.00;;;;;;5072592;28;20559;-51
2022/06/04 01:14:29;;;;;;;39.65;8.75;;;18.10;1.00;;;;;;5072432;28;20306;-52
2022/06/04 01:17:00;;;;;;;28.80;6.43;;;17.60;1.00;;;;;;5072087;28;20709;-51
2022/06/04 01:19:52;;;;;;;37.95;8.48;;;17.70;1.00;;;;;;5071975;28;20348;-52
2022/06/04 01:22:55;;;;;;;40.25;8.88;;;17.20;55.90;;;;;;5071972;28;20223;-52
2022/06/04 01:25:24;;;;;;;41.33;9.25;;;17.40;1.00;;;;;;5072107;28;20210;-52
2022/06/04 01:28:01;;;;;;;42.15;9.63;;;17.50;99.90;;;;;;5057385;28;20219;-52
2022/06/04 01:30:49;;;;;;;37.28;8.70;;;17.40;1.00;;;;;;5067266;28;20226;-52
2022/06/04 01:33:45;;;;;;;39.45;8.75;;;17.20;1.00;;;;;;5051979;28;20245;-52
2022/06/04 01:36:26;;;;;;;55.33;12.00;;;17.40;1.00;;;;;;5051762;28;20294;-51
2022/06/04 01:39:02;;;;;;;33.15;7.60;;;17.20;1.00;;;;;;5032255;28;20219;-52
2022/06/04 01:41:38;;;;;;;39.08;8.77;;;17.00;1.00;;;;;;5032502;28;20804;-52
2022/06/04 01:44:32;;;;;;;42.85;9.38;;;17.30;99.90;;;;;;5031616;28;20664;-52
2022/06/04 01:47:04;;;;;;;41.08;9.13;;;16.50;99.90;;;;;;5021157;28;20211;-51
2022/06/04 01:49:46;;;;;;;47.15;10.20;;;17.20;99.90;;;;;;5013806;28;20219;-51
2022/06/04 01:52:22;;;;;;;32.15;7.40;;;17.20;99.90;;;;;;5031553;28;20305;-52
2022/06/04 01:54:52;;;;;;;53.28;11.55;;;17.00;99.90;;;;;;5031605;28;20218;-52
2022/06/04 01:57:24;;;;;;;55.47;12.32;;;16.90;99.90;;;;;;5031347;28;20232;-52
2022/06/04 01:59:57;;;;;;;50.58;10.93;;;17.20;99.90;;;;;;5031675;28;20216;-52
2022/06/04 02:02:32;;;;;;;41.92;9.48;;;16.80;1.00;;;;;;5031648;28;20181;-51
2022/06/04 02:05:02;;;;;;;33.10;7.70;;;16.80;99.90;;;;;;5031676;28;20198;-52
2022/06/04 02:07:36;;;;;;;62.65;13.60;;;17.00;1.00;;;;;;5030861;28;20565;-52
2022/06/04 02:10:05;;;;;;;38.08;8.75;;;17.00;99.90;;;;;;5031819;28;20712;-51
2022/06/04 02:12:33;;;;;;;36.22;8.25;;;17.10;1.00;;;;;;5013330;28;20235;-52
2022/06/04 02:15:03;;;;;;;43.42;9.50;;;17.20;19.80;;;;;;5031243;28;20600;-51
2022/06/04 02:17:31;;;;;;;20.63;5.13;;;16.90;99.90;;;;;;5042934;28;20229;-51
2022/06/04 02:19:56;;;;;;;24.05;5.60;;;17.20;1.00;;;;;;5051252;28;20214;-52
2022/06/04 02:22:22;;;;;;;31.00;7.18;;;;;;;;;;5050693;28;20638;-51
2022/06/04 02:24:48;;;;;;;45.38;9.98;;;;;;;;;;5051280;28;20214;-51
2022/06/04 02:27:14;;;;;;;34.65;7.93;;;17.00;1.00;;;;;;5050751;28;20287;-52
2022/06/04 02:29:40;;;;;;;27.23;7.07;;;17.10;1.00;;;;;;5051228;28;20849;-52
2022/06/04 02:32:21;;;;;;;38.50;8.63;;;16.50;1.00;;;;;;5066520;28;20211;-52
2022/06/04 02:35:21;;;;;;;44.03;9.77;;;17.00;99.90;;;;;;5051078;28;20788;-52
2022/06/04 02:38:06;;;;;;;20.98;4.85;;;17.00;48.30;;;;;;5045709;28;20313;-52
2022/06/04 02:40:42;;;;;;;27.52;6.32;;;16.80;1.00;;;;;;5050905;28;20261;-51
2022/06/04 02:43:07;;;;;;;36.70;8.05;;;;;;;;;;5050279;28;20298;-52
2022/06/04 02:45:40;;;;;;;30.75;7.18;;;16.60;1.00;;;;;;5050785;28;20299;-51
2022/06/04 02:48:25;;;;;;;27.63;6.65;;;16.50;1.00;;;;;;5050628;28;20555;-51
2022/06/04 02:50:58;;;;;;;30.83;7.03;;;16.50;99.90;;;;;;5050620;28;20235;-52
2022/06/04 02:53:26;;;;;;;43.28;10.15;;;16.40;99.90;;;;;;5050879;28;20171;-51
2022/06/04 02:56:12;;;;;;;37.88;8.55;;;16.50;1.00;;;;;;5050600;28;20354;-52
2022/06/04 02:58:42;;;;;;;37.53;8.50;;;16.60;1.00;;;;;;5050121;28;20219;-51
2022/06/04 03:01:09;;;;;;;47.35;10.40;;;16.40;99.90;;;;;;5050372;28;20207;-52
2022/06/04 03:03:35;;;;;;;34.20;7.70;;;16.60;1.00;;;;;;5050414;28;20284;-51
2022/06/04 03:06:04;;;;;;;34.35;7.95;;;16.80;1.00;;;;;;5050670;28;20230;-52
2022/06/04 03:08:32;;;;;;;43.47;9.60;;;16.60;1.00;;;;;;5050137;28;20187;-52
2022/06/04 03:10:58;;;;;;;37.83;8.30;;;16.80;1.00;;;;;;5050007;28;20203;-51
2022/06/04 03:13:24;;;;;;;32.65;7.45;;;16.70;1.00;;;;;;5049791;28;20223;-52
2022/06/04 03:15:50;;;;;;;36.58;8.45;;;16.20;1.00;;;;;;5050182;28;20284;-52
2022/06/04 03:18:17;;;;;;;48.63;10.82;;;16.60;55.00;;;;;;5049846;28;20220;-52
2022/06/04 03:20:43;;;;;;;26.85;6.82;;;16.10;99.90;;;;;;5037885;28;20329;-51
2022/06/04 03:23:08;;;;;;;38.50;8.68;;;16.30;1.00;;;;;;5030888;28;20239;-52
2022/06/04 03:25:36;;;;;;;37.55;8.73;;;16.60;1.00;;;;;;5030150;28;20303;-52
2022/06/04 03:28:03;;;;;;;38.22;8.32;;;16.00;1.00;;;;;;5029748;28;20219;-52
2022/06/04 03:30:29;;;;;;;42.50;9.73;;;;;;;;;;5029882;28;20299;-52
2022/06/04 03:32:55;;;;;;;51.13;11.45;;;16.40;1.00;;;;;;5030199;28;20228;-51
2022/06/04 03:35:21;;;;;;;38.05;8.88;;;16.30;99.90;;;;;;5030457;28;20173;-52
2022/06/04 03:37:47;;;;;;;39.55;9.27;;;16.10;1.00;;;;;;5029625;28;20361;-52
2022/06/04 03:40:13;;;;;;;40.63;9.20;;;16.80;1.00;;;;;;5030145;28;20259;-52
2022/06/04 03:42:39;;;;;;;45.40;10.13;;;16.00;1.00;;;;;;5011935;28;20212;-51
2022/06/04 03:45:07;;;;;;;60.58;13.65;;;16.40;1.00;;;;;;5029856;28;20211;-52
2022/06/04 03:47:36;;;;;;;32.42;7.85;;;16.20;1.00;;;;;;5029783;28;20275;-52
2022/06/04 03:50:04;;;;;;;41.72;9.18;;;16.60;29.60;;;;;;5030291;28;20173;-52
2022/06/04 03:52:30;;;;;;;47.75;10.57;;;;;;;;;;5029595;28;20216;-52
2022/06/04 03:54:57;;;;;;;65.90;14.52;;;16.60;37.40;;;;;;5029576;28;20247;-51
2022/06/04 04:00:17;;;;;;;44.38;9.68;;;16.30;99.90;;;;;;5030160;28;20254;-51
2022/06/04 04:02:46;;;;;;;41.42;9.32;;;16.40;87.40;;;;;;5030004;28;20633;-51
2022/06/04 04:05:14;;;;;;;44.95;9.93;;;16.30;99.90;;;;;;5030338;28;20176;-51
2022/06/04 04:07:40;;;;;;;17.90;4.50;;;;;;;;;;5033869;28;20219;-52
2022/06/04 04:10:07;;;;;;;35.75;8.10;;;16.10;1.00;;;;;;5049796;28;20304;-52
2022/06/04 04:12:33;;;;;;;37.00;8.32;;;16.20;1.00;;;;;;5049096;28;20720;-52
2022/06/04 04:14:59;;;;;;;31.42;7.40;;;;;;;;;;5049694;28;20576;-52
2022/06/04 04:17:25;;;;;;;50.63;10.82;;;16.70;1.00;;;;;;5050112;28;20614;-52
2022/06/04 04:19:51;;;;;;;32.53;7.50;;;;;;;;;;5049849;28;20235;-52
2022/06/04 04:22:18;;;;;;;62.53;13.57;;;16.50;1.00;;;;;;5049520;28;20564;-51
2022/06/04 04:24:43;;;;;;;38.42;8.48;;;16.60;99.90;;;;;;5053394;28;20215;-51
2022/06/04 04:27:11;;;;;;;36.85;7.88;;;;;;;;;;5053035;28;20214;-51
2022/06/04 04:29:37;;;;;;;42.40;9.35;;;;;;;;;;5053113;28;20164;-51
2022/06/04 04:32:03;;;;;;;47.08;10.45;;;;;;;;;;5053635;28;20178;-52
2022/06/04 04:34:29;;;;;;;32.05;7.32;;;;;;;;;;5053798;28;20219;-52
2022/06/04 04:36:55;;;;;;;39.92;9.35;;;;;;;;;;5053008;28;20219;-51
2022/06/04 04:39:21;;;;;;;28.05;6.30;;;;;;;;;;5052910;28;20231;-52
2022/06/04 04:41:47;;;;;;;39.78;8.88;;;;;;;;;;5053026;28;20538;-52
2022/06/04 04:44:13;;;;;;;35.75;8.07;;;;;;;;;;5053136;28;20183;-52
2022/06/04 04:46:39;;;;;;;42.28;9.18;;;;;;;;;;5052829;28;20212;-52
2022/06/04 04:49:05;;;;;;;52.67;11.48;;;;;;;;;;5052569;28;20594;-51
2022/06/04 04:51:34;;;;;;;35.92;8.13;;;;;;;;;;5052850;28;20215;-52
2022/06/04 04:54:00;;;;;;;14.60;3.50;;;;;;;;;;5052799;28;20219;-52
2022/06/04 04:56:26;;;;;;;34.00;7.47;;;;;;;;;;5053330;28;20581;-52
2022/06/04 04:58:52;;;;;;;39.05;8.48;;;;;;;;;;5052504;28;20281;-52
2022/06/04 05:01:19;;;;;;;40.63;8.68;;;;;;;;;;5052657;28;20626;-52
2022/06/04 05:03:45;;;;;;;38.42;8.35;;;;;;;;;;5052681;28;20219;-51
2022/06/04 05:06:12;;;;;;;34.22;7.68;;;;;;;;;;5019475;28;20271;-52
2022/06/04 05:08:39;;;;;;;33.13;7.55;;;;;;;;;;5032416;28;20196;-52
2022/06/04 05:11:08;;;;;;;19.55;4.72;;;;;;;;;;5065553;28;20513;-52
2022/06/04 05:13:35;;;;;;;48.00;10.20;;;;;;;;;;5071961;28;20272;-51
2022/06/04 05:16:01;;;;;;;27.85;6.45;;;;;;;;;;5072586;28;20214;-52
2022/06/04 05:18:26;;;;;;;34.30;7.72;;;;;;;;;;5072076;28;20773;-52
2022/06/04 05:20:52;;;;;;;37.50;8.07;;;;;;;;;;5072072;28;20567;-52
2022/06/04 05:23:19;;;;;;;33.20;7.53;;;;;;;;;;5072920;28;20171;-51
2022/06/04 05:25:45;;;;;;;29.75;6.80;;;;;;;;;;5072030;28;20223;-52
2022/06/04 05:28:10;;;;;;;41.58;9.10;;;;;;;;;;5071994;28;20564;-52
2022/06/04 05:30:36;;;;;;;36.53;7.85;;;;;;;;;;5072117;28;20226;-52
2022/06/04 05:33:03;;;;;;;36.85;7.72;;;;;;;;;;5071808;28;20696;-52
2022/06/04 05:35:29;;;;;;;51.65;11.25;;;;;;;;;;5072152;28;20202;-52
2022/06/04 05:37:55;;;;;;;39.67;8.52;;;;;;;;;;5071523;28;20253;-52
2022/06/04 05:40:20;;;;;;;41.70;9.32;;;;;;;;;;5072101;28;20222;-51
2022/06/04 05:42:46;;;;;;;35.40;7.78;;;;;;;;;;5071670;28;20221;-51
2022/06/04 05:45:12;;;;;;;27.17;6.45;;;;;;;;;;5071882;28;20393;-52
2022/06/04 05:47:38;;;;;;;37.03;8.30;;;;;;;;;;5071856;28;20650;-52
2022/06/04 05:50:05;;;;;;;37.53;8.25;;;;;;;;;;5072076;28;20265;-52
2022/06/04 05:52:31;;;;;;;38.47;8.32;;;;;;;;;;5071630;28;20708;-52
2022/06/04 05:54:56;;;;;;;43.42;9.65;;;;;;;;;;5071860;28;20226;-52
2022/06/04 05:57:22;;;;;;;65.28;14.40;;;;;;;;;;5071054;28;20231;-52
2022/06/04 05:59:49;;;;;;;34.17;7.97;;;;;;;;;;5071751;28;20174;-52
2022/06/04 06:02:15;;;;;;;35.30;7.93;;;;;;;;;;5072007;28;20252;-52
2022/06/04 06:04:41;;;;;;;42.65;9.73;;;;;;;;;;5071423;28;20242;-52
2022/06/04 06:07:07;;;;;;;60.90;12.57;;;;;;;;;;5071418;28;20264;-52
2022/06/04 06:09:33;;;;;;;18.35;4.53;;;;;;;;;;5071450;28;20678;-52
2022/06/04 06:11:59;;;;;;;32.30;7.53;;;;;;;;;;5071500;28;20218;-52
2022/06/04 06:14:25;;;;;;;35.97;8.18;;;;;;;;;;5071342;28;20538;-52
2022/06/04 06:16:51;;;;;;;43.80;9.73;;;;;;;;;;5070978;28;20217;-52
2022/06/04 06:19:18;;;;;;;54.80;12.35;;;;;;;;;;5070920;28;20325;-52
2022/06/04 06:21:44;;;;;;;45.45;10.02;;;;;;;;;;5071087;28;20234;-52
2022/06/04 06:24:11;;;;;;;24.83;6.05;;;;;;;;;;5071113;28;20245;-52
2022/06/04 06:26:44;;;;;;;37.45;8.68;;;;;;;;;;5071055;28;20201;-52
2022/06/04 06:29:11;;;;;;;34.22;8.27;;;;;;;;;;5071320;28;20179;-52
2022/06/04 06:31:37;;;;;;;32.30;7.65;;;;;;;;;;5070792;28;20713;-52
2022/06/04 06:34:03;;;;;;;35.92;7.97;;;;;;;;;;5049405;28;20539;-51
2022/06/04 06:36:29;;;;;;;48.55;10.77;;;;;;;;;;5070560;28;20227;-52
2022/06/04 06:38:55;;;;;;;38.33;9.05;;;;;;;;;;5070390;28;20226;-52
2022/06/04 06:41:23;;;;;;;38.75;9.15;;;;;;;;;;5071294;28;20181;-52
2022/06/04 06:43:50;;;;;;;40.05;9.40;;;;;;;;;;5052448;28;20567;-52
2022/06/04 06:46:26;;;;;;;14.32;4.00;;;;;;;;;;5070606;28;20238;-52
2022/06/04 06:48:59;;;;;;;27.42;6.53;;;;;;;;;;5070638;28;20214;-52
2022/06/04 06:51:36;;;;;;;58.67;13.73;;;;;;;;;;5068717;28;20808;-52
2022/06/04 06:54:03;;;;;;;43.05;10.05;;;;;;;;;;5069862;28;20210;-52
2022/06/04 06:56:31;;;;;;;60.58;13.95;;;;;;;;;;5070887;28;20187;-52
2022/06/04 06:58:58;;;;;;;48.53;11.55;;;;;;;;;;5070267;28;20686;-52
2022/06/04 07:01:26;;;;;;;35.72;8.20;;;;;;;;;;5070258;28;20348;-52
2022/06/04 07:03:52;;;;;;;35.03;8.32;;;;;;;;;;5070214;28;20552;-51
2022/06/04 07:06:27;;;;;;;46.28;10.52;;;;;;;;;;5070447;28;20217;-52
2022/06/04 07:08:54;;;;;;;26.02;6.65;;;;;;;;;;5070335;28;20348;-52
2022/06/04 07:11:20;;;;;;;42.63;9.55;;;;;;;;;;5071179;28;20601;-52
2022/06/04 07:13:46;;;;;;;38.90;8.90;;;;;;;;;;5069887;28;20301;-52
2022/06/04 07:16:12;;;;;;;34.60;7.75;;;;;;;;;;5056770;28;20211;-53
2022/06/04 07:18:38;;;;;;;29.45;7.13;;;;;;;;;;5050068;28;20234;-53
2022/06/04 07:21:05;;;;;;;15.32;4.10;;;;;;;;;;5050345;28;20299;-52
2022/06/04 07:23:34;;;;;;;55.95;12.77;;;;;;;;;;5049012;28;20180;-53
2022/06/04 07:26:00;;;;;;;13.90;4.07;;;;;;;;;;5050675;28;20253;-52
2022/06/04 07:28:26;;;;;;;49.33;12.07;;;;;;;;;;5049164;28;20256;-51
2022/06/04 07:30:53;;;;;;;32.25;7.45;;;;;;;;;;5032536;28;20738;-53
2022/06/04 07:33:19;;;;;;;27.73;6.78;;;;;;;;;;5050151;28;20207;-53
2022/06/04 07:35:47;;;;;;;12.07;3.85;;;;;;;;;;5050302;28;20183;-52
2022/06/04 07:38:13;;;;;;;34.88;8.25;;;;;;;;;;5050031;28;20245;-50
2022/06/04 07:40:39;;;;;;;4.25;1.90;;;;;;;;;;5049810;28;20718;-53
2022/06/04 07:43:05;;;;;;;34.88;8.15;;;;;;;;;;5049564;28;20273;-52
2022/06/04 07:45:31;;;;;;;44.45;10.25;;;;;;;;;;5050014;28;20297;-52
2022/06/04 07:47:57;;;;;;;37.45;9.02;;;;;;;;;;5049890;28;20307;-53
2022/06/04 07:50:22;;;;;;;31.33;8.15;;;;;;;;;;5050293;28;20207;-53
2022/06/04 07:52:48;;;;;;;40.50;9.75;;;;;;;;;;5049604;28;20231;-53
2022/06/04 07:55:14;;;;;;;34.45;8.57;;;;;;;;;;5049699;28;20211;-53
2022/06/04 07:57:41;;;;;;;55.10;12.95;;;;;;;;;;5050113;28;20227;-53
2022/06/04 08:00:07;;;;;;;43.85;10.52;;;;;;;;;;5053878;28;20619;-53
2022/06/04 08:02:33;;;;;;;34.67;9.02;;;;;;;;;;5053944;28;20172;-53
2022/06/04 08:04:59;;;;;;;29.40;7.97;;;;;;;;;;5054167;28;20294;-53
2022/06/04 08:07:25;;;;;;;61.85;14.93;;;;;;;;;;5053622;28;20299;-53
2022/06/04 08:09:51;;;;;;;46.63;11.57;;;;;;;;;;5053843;28;20442;-53
2022/06/04 08:12:17;;;;;;;54.42;13.30;;;;;;;;;;5052973;28;20223;-53
2022/06/04 08:14:44;;;;;;;18.15;6.00;;;;;;;;;;5053856;28;20172;-53
2022/06/04 08:17:10;;;;;;;35.67;9.27;;;;;;;;;;5053757;28;20172;-51
2022/06/04 08:19:39;;;;;;;37.28;9.45;;;;;;;;;;5053395;28;20302;-52
2022/06/04 08:22:06;;;;;;;35.70;9.20;;;;;;;;;;5053263;28;20215;-52
2022/06/04 08:24:32;;;;;;;34.70;9.02;;;;;;;;;;5035516;28;20211;-52
2022/06/04 08:26:58;;;;;;;19.75;5.68;;;;;;;;;;5053275;28;20299;-52
2022/06/04 08:29:25;;;;;;;48.50;11.77;;;;;;;;;;5053670;28;20535;-52
2022/06/04 08:31:51;;;;;;;32.30;8.50;;;;;;;;;;5035964;28;20638;-52
2022/06/04 08:34:17;;;;;;;4.47;2.40;;;;;;;;;;5054034;28;20231;-52
2022/06/04 08:36:43;;;;;;;35.08;9.25;;;;;;;;;;5053495;28;20265;-52
2022/06/04 08:39:10;;;;;;;58.40;14.13;;;;;;;;;;5052561;28;20229;-52
2022/06/04 08:41:42;;;;;;;28.85;8.27;;;;;;;;;;5053108;28;20182;-52
2022/06/04 08:44:15;;;;;;;33.20;8.38;;;;;;;;;;5053437;28;20176;-52
2022/06/04 08:46:52;;;;;;;42.92;11.15;;;;;;;;;;5052456;28;20215;-52
2022/06/04 08:49:34;;;;;;;46.35;11.93;;;;;;;;;;5053100;28;20228;-52
2022/06/04 08:52:02;;;;;;;35.90;9.48;;;;;;;;;;5052758;28;20242;-52
2022/06/04 08:57:33;;;;;;;30.77;8.80;;;;;;;;;;5052056;28;20222;-52
2022/06/04 09:00:11;;;;;;;21.23;7.05;;;;;;;;;;5052887;28;20219;-51
2022/06/04 09:02:49;;;;;;;46.10;12.05;;;;;;;;;;5052615;28;20258;-53
2022/06/04 09:05:25;;;;;;;45.53;11.52;;;;;;;;;;5052064;28;20172;-52
2022/06/04 09:07:56;;;;;;;28.70;8.63;;;;;;;;;;5052729;28;20742;-51
2022/06/04 09:10:25;;;;;;;45.80;12.18;;;;;;;;;;5051560;28;20295;-51
2022/06/04 09:12:55;;;;;;;41.05;11.20;;;;;;;;;;5052483;28;20284;-52
2022/06/04 09:15:21;;;;;;;8.90;4.22;;;;;;;;;;5052744;28;20211;-52
2022/06/04 09:17:51;;;;;;;34.13;9.63;;;;;;;;;;5052594;28;20606;-52
2022/06/04 09:20:34;;;;;;;45.58;12.65;;;;;;;;;;5053046;28;20671;-52
2022/06/04 09:23:04;;;;;;;30.60;9.38;;;;;;;;;;5052660;28;20250;-52
2022/06/04 09:25:35;;;;;;;44.70;13.45;;;;;;;;;;5052245;28;20225;-52
2022/06/04 09:28:10;;;;;;;79.10;21.80;;;;;;;;;;5050639;28;20223;-52
2022/06/04 09:30:50;;;;;;;38.08;10.95;;;;;;;;;;5052055;28;20214;-52
2022/06/04 09:33:17;;;;;;;54.72;15.52;;;;;;;;;;5049922;28;20247;-52
2022/06/04 09:35:44;;;;;;;22.70;8.15;;;;;;;;;;5052929;28;20445;-52
2022/06/04 09:38:22;;;;;;;26.58;8.82;;;;;;;;;;5052221;28;20725;-52
2022/06/04 09:40:55;;;;;;;45.08;12.75;;;;;;;;;;5052018;28;20284;-52
2022/06/04 09:43:21;;;;;;;40.95;11.80;;;;;;;;;;5051746;28;20710;-51
2022/06/04 09:45:52;;;;;;;36.20;11.10;;;;;;;;;;5051996;28;20207;-52
2022/06/04 09:48:26;;;;;;;33.58;10.45;;;;;;;;;;5051822;28;20211;-51
2022/06/04 09:50:56;;;;;;;42.55;13.43;;;;;;;;;;5051720;28;20167;-52
2022/06/04 09:53:23;;;;;;;56.72;16.92;;;;;;;;;;5043146;28;20565;-50
2022/06/04 09:55:52;;;;;;;67.43;19.98;;;;;;;;;;5040666;28;20283;-54
2022/06/04 09:58:18;;;;;;;37.17;11.90;;;;;;;;;;5051797;28;20365;-53
2022/06/04 10:00:55;;;;;;;35.33;11.75;;;;;;;;;;5051738;28;20253;-52
2022/06/04 10:03:21;;;;;;;325.20;258.95;;;;;;;;;;5051110;28;20422;-52
2022/06/04 10:06:01;;;;;;;281.33;243.65;;;;;;;;;;5051558;28;20445;-52
2022/06/04 10:08:29;;;;;;;304.85;228.45;;;;;;;;;;5051893;28;20602;-52
2022/06/04 10:11:07;;;;;;;292.90;229.23;;;;;;;;;;5051856;28;20215;-52
2022/06/04 10:13:43;;;;;;;327.33;235.05;;;;;;;;;;5051311;28;20226;-52
2022/06/04 10:16:17;;;;;;;311.75;227.77;;;;;;;;;;5051596;28;20305;-53
2022/06/04 10:18:59;;;;;;;20.77;6.00;;;;;;;;;;5051191;28;20361;-53
2022/06/04 10:21:35;;;;;;;47.20;11.55;;;;;;;;;;5051174;28;20225;-52
2022/06/04 10:24:01;;;;;;;38.47;9.88;;;;;;;;;;5051483;28;20721;-53
2022/06/04 10:26:33;;;;;;;11.15;4.60;;;;;;;;;;5051705;28;20202;-53
2022/06/04 10:28:59;;;;;;;30.33;8.52;;;;;;;;;;5050870;28;20207;-53
2022/06/04 10:31:44;;;;;;;53.55;13.93;;;;;;;;;;5032947;28;20215;-53
2022/06/04 10:34:21;;;;;;;32.03;8.60;;;;;;;;;;5051234;28;20219;-52
2022/06/04 10:37:06;;;;;;;51.53;12.20;;;;;;;;;;5051311;28;20207;-53
2022/06/04 10:40:04;;;;;;;11.13;4.18;;;;;;;;;;5051372;28;20227;-53
2022/06/04 10:42:30;;;;;;;39.80;10.30;;;;;;;;;;5006745;28;20311;-53
2022/06/04 10:45:32;;;;;;;36.83;9.23;;;;;;;;;;5050899;28;20227;-53
2022/06/04 10:48:08;;;;;;;36.88;9.63;;;;;;;;;;4969643;28;20637;-53
2022/06/04 10:54:01;;;;;;;47.65;12.18;;;;;;;;;;5050857;28;20159;-52
2022/06/04 10:56:46;;;;;;;30.00;7.53;;;;;;;;;;5059856;28;20697;-52
2022/06/04 10:59:48;;;;;;;27.13;6.85;;;;;;;;;;5070695;28;20214;-53
2022/06/04 11:02:24;;;;;;;21.77;5.60;;;;;;;;;;4969414;28;20214;-53
2022/06/04 11:04:56;;;;;;;31.60;7.53;;;;;;;;;;5057656;28;20217;-53
2022/06/04 11:07:33;;;;;;;314.33;270.98;;;;;;;;;;5056372;28;20712;-51
2022/06/04 11:10:00;;;;;;;286.55;257.48;;;;;;;;;;5030694;28;20215;-51
2022/06/04 11:12:35;;;;;;;282.75;252.25;;;;;;;;;;5030723;28;20216;-52
2022/06/04 11:15:13;;;;;;;277.30;248.68;;;;;;;;;;5035170;28;20215;-51
2022/06/04 11:17:54;;;;;;;271.33;244.15;;;;;;;;;;5048847;28;20218;-52
2022/06/04 11:20:23;;;;;;;259.50;234.63;;;;;;;;;;5050387;28;20203;-52
2022/06/04 11:23:09;;;;;;;262.40;234.38;;;;;;;;;;5037236;28;20215;-52
2022/06/04 11:25:39;;;;;;;266.20;237.05;;;;;;;;;;4999926;28;20272;-52
2022/06/04 11:28:10;;;;;;;248.88;223.32;;;;;;;;;;5049746;28;20806;-53
2022/06/04 11:30:58;;;;;;;253.57;228.63;;;;;;;;;;5030252;28;20230;-52
2022/06/04 11:33:42;;;;;;;284.48;255.18;;;;;;;;;;5029540;28;20216;-52
2022/06/04 11:36:11;;;;;;;269.45;242.77;;;;;;;;;;5046923;28;20553;-52
2022/06/04 11:38:43;;;;;;;276.58;250.27;;;;;;;;;;5049997;28;20203;-52
2022/06/04 11:41:23;;;;;;;292.80;263.65;;;;;;;;;;5049892;28;20206;-52
2022/06/04 11:44:11;;;;;;;280.88;253.88;;;;;;;;;;5049463;28;20641;-52
2022/06/04 11:46:41;;;;;;;290.17;261.48;;;;;;;;;;5029872;28;20243;-53
2022/06/04 11:49:07;;;;;;;281.30;253.50;;;;;;;;;;5029565;28;20212;-53
2022/06/04 11:51:51;;;;;;;302.05;271.05;;;;;;;;;;5032446;28;20306;-52
2022/06/04 11:54:29;;;;;;;288.52;259.85;;;;;;;;;;5047763;28;20582;-52
2022/06/04 11:57:10;;;;;;;286.55;259.15;;;;;;;;;;5049633;28;20646;-53
2022/06/04 11:59:42;;;;;;;288.60;259.55;;;;;;;;;;5049820;28;20268;-53
2022/06/04 12:02:17;;;;;;;292.70;264.00;;;;;;;;;;5050087;28;20204;-53
2022/06/04 12:05:06;;;;;;;282.17;257.02;;;;;;;;;;5050429;28;20234;-53
2022/06/04 12:07:37;;;;;;;284.42;257.42;;;;;;;;;;5049965;28;20219;-52
2022/06/04 12:10:35;;;;;;;276.17;249.90;;;;;;;;;;5050509;28;20239;-53
2022/06/04 12:13:04;;;;;;;280.23;251.98;;;;;;;;;;4995436;28;20302;-53
2022/06/04 12:15:36;;;;;;;259.30;233.30;;;;;;;;;;5050336;28;20215;-53
2022/06/04 12:18:23;;;;;;;274.02;246.27;;;;;;;;;;5049910;28;20770;-52
2022/06/04 12:26:34;;;;;;;278.75;250.18;;;;;;;;;;5051109;28;20174;-53
2022/06/04 12:29:00;;;;;;;287.35;258.27;;;;;;;;;;5049888;28;20217;-53
2022/06/04 12:31:34;;;;;;;282.02;252.60;;;;;;;;;;5050092;28;20218;-53
2022/06/04 12:34:01;;;;;;;286.42;255.63;;;;;;;;;;5049828;28;20212;-53
2022/06/04 12:36:32;;;;;;;277.90;248.60;;;;;;;;;;5050190;28;20691;-53
2022/06/04 12:39:18;;;;;;;286.70;256.63;;;;;;;;;;5050011;28;20226;-52
2022/06/04 12:41:46;;;;;;;282.67;252.35;;;;;;;;;;5050182;28;20247;-52
2022/06/04 12:44:23;;;;;;;278.67;248.73;;;;;;;;;;5052145;28;20222;-53
2022/06/04 12:46:50;;;;;;;279.23;248.98;;;;;;;;;;5053649;28;20675;-52
2022/06/04 12:49:27;;;;;;;272.42;242.75;;;;;;;;;;5053426;28;20230;-53
2022/06/04 12:52:01;;;;;;;287.75;254.05;;;;;;;;;;5053397;28;20215;-53
2022/06/04 12:54:48;;;;;;;288.77;246.57;;;;;;;;;;5053530;28;20629;-52
2022/06/04 12:57:23;;;;;;;331.95;255.60;;;;;;;;;;5053063;28;20235;-52
2022/06/04 13:00:04;;;;;;;336.13;247.13;;;;;;;;;;5053570;28;20164;-53
2022/06/04 13:02:32;;;;;;;222.15;200.75;;;;;;;;;;5053936;28;20225;-52
2022/06/04 13:05:09;;;;;;;112.75;104.78;;;;;;;;;;5053157;28;20207;-52
2022/06/04 13:07:42;;;;;;;72.90;67.25;;;;;;;;;;5035186;28;20369;-52
2022/06/04 13:10:16;;;;;;;71.35;66.00;;;;;;;;;;5053231;28;20212;-52
2022/06/04 13:13:18;;;;;;;69.53;63.50;;;;;;;;;;5052865;28;20301;-52
2022/06/04 13:15:52;;;;;;;75.55;69.45;;;;;;;;;;4952582;29;20229;-53
2022/06/04 13:18:21;;;;;;;64.00;58.55;;;;;;;;;;5037878;28;20219;-53
2022/06/04 13:20:48;;;;;;;65.07;58.85;;;;;;;;;;5052694;28;20199;-52
2022/06/04 13:23:33;;;;;;;58.08;52.65;;;;;;;;;;5053305;28;20179;-53
2022/06/04 13:26:02;;;;;;;68.25;59.40;;;;;;;;;;5052872;28;20214;-52
2022/06/04 13:28:28;;;;;;;56.13;50.42;;;;;;;;;;5052423;28;20723;-53
2022/06/04 13:30:54;;;;;;;59.92;56.35;;;;;;;;;;5068391;28;20288;-52
2022/06/04 13:33:21;;;;;;;68.05;63.88;;;;;;;;;;5072623;28;20206;-52
2022/06/04 13:35:51;;;;;;;72.22;65.70;;;;;;;;;;5072571;28;20178;-52
2022/06/04 13:38:24;;;;;;;106.78;79.07;;;;;;;;;;5051201;28;20304;-52
2022/06/04 13:40:56;;;;;;;72.15;66.13;;;;;;;;;;5051726;28;20691;-53
2022/06/04 13:43:22;;;;;;;94.55;74.55;;;;;;;;;;5051310;28;20219;-52
2022/06/04 13:45:48;;;;;;;62.72;54.00;;;;;;;;;;5051815;28;20218;-52
2022/06/04 13:48:22;;;;;;;59.35;50.65;;;;;;;;;;5051608;28;20720;-52
2022/06/04 13:50:50;;;;;;;54.17;42.78;;;;;;;;;;5051761;28;20663;-52
2022/06/04 13:53:19;;;;;;;65.40;56.42;;;;;;;;;;5051784;28;20172;-52
2022/06/04 13:55:50;;;;;;;66.90;50.85;;;;;;;;;;5050975;28;20298;-52
2022/06/04 13:58:28;;;;;;;58.03;52.97;;;;;;;;;;5051172;28;20219;-53
2022/06/04 14:00:55;;;;;;;51.42;41.20;;;;;;;;;;5051182;28;20718;-52
2022/06/04 14:03:29;;;;;;;69.53;47.67;;;;;;;;;;5051497;28;20271;-52
2022/06/04 14:05:56;;;;;;;52.70;39.75;;;;;;;;;;5051092;28;20207;-53
2022/06/04 14:08:22;;;;;;;41.15;37.70;;;;;;;;;;5051651;28;20684;-53
2022/06/04 14:11:00;;;;;;;57.72;49.13;;;;;;;;;;5051363;28;20212;-53
2022/06/04 14:13:34;;;;;;;66.25;47.38;;;;;;;;;;5050897;28;20532;-53
2022/06/04 14:16:14;;;;;;;54.47;48.97;;;;;;;;;;5051362;28;20737;-53
2022/06/04 14:18:40;;;;;;;56.53;50.30;;;;;;;;;;5050624;28;20227;-52
2022/06/04 14:21:24;;;;;;;54.85;48.13;;;;;;;;;;5051167;28;20207;-53
2022/06/04 14:24:13;;;;;;;65.93;52.97;;;;;;;;;;5050826;28;20219;-53
2022/06/04 14:26:58;;;;;;;51.35;45.47;;;;;;;;;;5051418;28;20176;-53
2022/06/04 14:29:50;;;;;;;60.80;43.15;;;;;;;;;;5051069;28;20246;-52
2022/06/04 14:32:24;;;;;;;56.47;51.13;;;;;;;;;;5050827;28;20202;-52